Latest Weather Observations for Grafton AgRS

IDN60801

Issued at 4:35 pm EDT Friday 31 October 2014 (issued every 30 minutes, with the page automatically refreshed every 10 minutes)

About weather observations | Map of weather stations | Latest weather observations for NSW | Other Formats
Station Details ID: 058077 Name: GRAFTON RESEARCH STN Lat: -29.62 Lon: 152.96 Height: 25.0 m
Data from the previous 72 hours. | See also: Recent months for locations in New South Wales
Date/Time
EDT
Temp
°C
App
Temp
°C
Dew
Point
Rel
Hum
%
Delta-T
°C
Wind Press
QNH
hPa
Press
MSL
hPa
Rain
since 9 am
mm
Dir
 
Spd
km/h
Gust
km/h
Spd
kts
Gust
kts
31/04:30pm 29.6 29.1 19.0 53 6.9 ENE 20 33 11 18 - - 0.0
31/04:00pm 30.0 29.1 19.1 52 7.1 ENE 22 35 12 19 - - 0.0
31/03:30pm 31.0 30.5 19.0 48 7.8 ENE 20 33 11 18 - - 0.0
31/03:00pm 31.6 31.3 19.2 47 8.1 ENE 19 30 10 16 - - 0.0
31/02:30pm 32.0 31.9 19.9 48 8.0 E 20 33 11 18 - - 0.0
31/02:00pm 33.5 33.2 19.6 44 9.2 E 20 33 11 18 - - 0.0
31/01:30pm 33.1 32.9 18.5 42 9.5 ENE 17 28 9 15 - - 0.0
31/01:00pm 32.5 31.9 17.5 40 9.6 E 17 24 9 13 - - 0.0
31/12:30pm 32.1 33.0 17.6 42 9.3 NNE 9 17 5 9 - - 0.0
31/12:00pm 31.7 32.6 18.3 45 8.7 NNE 11 28 6 15 - - 0.0
31/11:30am 30.1 31.4 17.5 46 8.0 N 7 13 4 7 - - 0.0
31/11:00am 28.5 29.2 17.1 50 7.2 NE 9 13 5 7 - - 0.0
31/10:30am 28.0 28.9 18.4 56 6.1 N 11 17 6 9 - - 0.0
31/10:00am 26.8 27.7 17.6 57 5.8 E 9 13 5 7 - - 0.0
31/09:30am 24.9 26.4 18.1 66 4.3 S 7 15 4 8 - - 0.0
31/09:00am 23.2 24.8 17.9 72 3.3 S 6 9 3 5 - - 0.0
31/08:30am 21.9 23.9 17.9 78 2.5 SSE 4 7 2 4 - - 0.0
31/08:00am 19.6 21.0 17.4 87 1.3 NW 6 9 3 5 - - 0.0
31/07:30am 17.8 19.6 16.5 92 0.8 SW 2 7 1 4 - - 0.0
31/07:00am 16.5 17.2 15.7 95 0.5 SE 6 7 3 4 - - 0.0
31/06:30am 16.3 17.0 15.7 96 0.4 NW 6 9 3 5 - - 0.0
31/06:00am 15.8 17.5 15.2 96 0.3 CALM 0 0 0 0 - - 0.0
31/05:30am 16.0 16.4 15.4 96 0.3 NNW 7 9 4 5 - - 0.0
31/05:00am 16.5 16.8 15.9 96 0.4 NNW 9 11 5 6 - - 0.0
31/04:30am 16.6 18.4 15.6 94 0.6 CALM 0 0 0 0 - - 0.0
31/04:00am 16.9 17.6 16.1 95 0.5 NW 7 7 4 4 - - 0.0
31/03:30am 17.1 18.1 16.3 95 0.5 NW 6 7 3 4 - - 0.0
31/03:00am 17.2 18.0 16.4 95 0.5 WNW 7 9 4 5 - - 0.0
31/02:30am 17.4 18.5 16.6 95 0.5 NW 6 7 3 4 - - 0.0
31/02:00am 17.7 18.8 16.7 94 0.6 W 6 7 3 4 - - 0.0
31/01:30am 18.2 19.5 17.2 94 0.6 WNW 6 9 3 5 - - 0.0
31/01:00am 18.0 19.3 17.0 94 0.6 NNW 6 7 3 4 - - 0.0
31/12:30am 18.2 20.6 16.9 92 0.8 CALM 0 0 0 0 - - 0.0
31/12:00am 18.5 21.0 17.3 93 0.7 SE 0 0 0 0 - - 0.0
 
Date/Time
EDT
Temp
°C
App
Temp
°C
Dew
Point
Rel
Hum
%
Delta-T
°C
Wind Press
QNH
hPa
Press
MSL
hPa
Rain
since 9 am
mm
Dir
 
Spd
km/h
Gust
km/h
Spd
kts
Gust
kts
30/11:30pm 18.9 21.5 17.4 91 0.9 CALM 0 0 0 0 - - 0.0
30/11:00pm 19.3 20.8 17.6 90 1.0 ESE 6 9 3 5 - - 0.0
30/10:30pm 19.1 21.6 17.2 89 1.2 CALM 0 0 0 0 - - 0.0
30/10:00pm 19.2 21.5 16.8 86 1.4 CALM 0 0 0 0 - - 0.0
30/09:30pm 19.8 22.0 16.4 81 2.0 CALM 0 0 0 0 - - 0.0
30/09:00pm 20.3 21.7 16.3 78 2.4 ENE 4 7 2 4 - - 0.0
30/08:30pm 21.1 22.2 16.5 75 2.8 NE 6 9 3 5 - - 0.0
30/08:00pm 21.6 21.7 16.6 73 3.0 NE 11 20 6 11 - - 0.0
30/07:30pm 21.9 21.4 16.0 69 3.6 NE 13 20 7 11 - - 0.0
30/07:00pm 22.4 21.6 15.0 63 4.4 ENE 13 20 7 11 - - 0.0
30/06:30pm 23.3 21.9 14.6 58 5.2 ENE 15 26 8 14 - - 0.0
30/06:00pm 24.4 22.0 13.9 52 6.2 ENE 19 32 10 17 - - 0.0
30/05:30pm 25.3 22.8 14.1 50 6.6 ENE 20 35 11 19 - - 0.0
30/05:00pm 26.0 24.0 15.4 52 6.4 ENE 20 39 11 21 - - 0.0
30/04:30pm 26.9 24.5 15.3 49 7.0 ENE 22 39 12 21 - - 0.0
30/04:00pm 28.0 26.0 15.6 46 7.6 ENE 20 35 11 19 - - 0.0
30/03:30pm 28.7 27.0 16.3 47 7.7 ENE 20 32 11 17 - - 0.0
30/03:00pm 29.7 28.8 16.8 45 8.1 ENE 17 35 9 19 - - 0.0
30/02:30pm 30.1 28.3 16.1 42 8.7 ENE 20 33 11 18 - - 0.0
30/02:00pm 31.3 30.6 13.1 33 10.9 N 9 17 5 9 - - 0.0
30/01:30pm 30.8 30.1 13.1 34 10.6 NE 9 15 5 8 - - 0.0
30/01:00pm 30.0 28.9 12.0 33 10.5 NNE 9 17 5 9 - - 0.0
30/12:30pm 30.1 29.2 13.8 37 9.8 NE 11 20 6 11 - - 0.0
30/12:00pm 28.5 27.3 12.8 38 9.2 NNE 11 19 6 10 - - 0.0
30/11:30am 28.3 28.0 14.5 43 8.3 NNE 9 17 5 9 - - 0.0
30/11:00am 27.2 27.4 14.6 46 7.6 NNW 7 13 4 7 - - 0.0
30/10:30am 25.6 25.7 15.6 54 6.1 NE 9 19 5 10 - - 0.0
30/10:00am 25.1 25.2 16.5 59 5.3 NW 11 19 6 10 - - 0.0
30/09:30am 22.8 22.9 15.4 63 4.4 NW 9 13 5 7 - - 0.0
30/09:00am 21.7 22.7 15.3 67 3.8 WNW 4 9 2 5 - - 0.0
30/08:30am 19.8 19.5 14.4 71 3.1 W 9 11 5 6 - - 0.0
30/08:00am 18.3 18.5 14.6 79 2.1 WNW 7 13 4 7 - - 0.0
30/07:30am 16.7 16.9 14.2 85 1.4 WNW 6 7 3 4 - - 0.0
30/07:00am 15.4 16.6 13.9 91 0.8 CALM 0 6 0 3 - - 0.0
30/06:30am 14.4 14.3 13.4 94 0.6 WNW 6 7 3 4 - - 0.0
30/06:00am 13.9 14.5 13.0 94 0.5 WNW 2 7 1 4 - - 0.0
30/05:30am 14.0 14.8 12.7 92 0.7 CALM 0 0 0 0 - - 0.0
30/05:00am 14.5 14.3 13.0 91 0.8 WNW 6 7 3 4 - - 0.0
30/04:30am 14.5 14.9 12.5 88 1.1 WNW 2 6 1 3 - - 0.0
30/04:00am 15.2 14.6 13.4 89 1.0 NW 9 13 5 7 - - 0.0
30/03:30am 15.0 16.0 13.2 89 1.0 CALM 0 0 0 0 - - 0.0
30/03:00am 15.5 15.6 12.8 84 1.5 WNW 4 9 2 5 - - 0.0
30/02:30am 16.0 15.7 13.3 84 1.5 WNW 7 9 4 5 - - 0.0
30/02:00am 16.5 16.4 14.0 85 1.4 NW 7 9 4 5 - - 0.0
30/01:30am 16.7 16.6 14.0 84 1.5 WNW 7 9 4 5 - - 0.0
30/01:00am 17.2 17.3 14.5 84 1.6 WNW 7 7 4 4 - - 0.0
30/12:30am 17.2 17.5 14.5 84 1.6 WNW 6 7 3 4 - - 0.0
30/12:00am 17.5 17.6 14.4 82 1.8 W 7 7 4 4 - - 0.0
 
Date/Time
EDT
Temp
°C
App
Temp
°C
Dew
Point
Rel
Hum
%
Delta-T
°C
Wind Press
QNH
hPa
Press
MSL
hPa
Rain
since 9 am
mm
Dir
 
Spd
km/h
Gust
km/h
Spd
kts
Gust
kts
29/11:30pm 17.8 18.2 14.7 82 1.8 W 6 7 3 4 - - 0.0
29/11:00pm 17.9 18.2 14.4 80 2.0 W 6 6 3 3 - - 0.0
29/10:30pm 18.1 18.5 13.8 76 2.5 WSW 4 7 2 4 - - 0.0
29/10:00pm 18.3 19.6 14.0 76 2.5 CALM 0 0 0 0 - - 0.0
29/09:30pm 18.5 19.8 14.0 75 2.6 CALM 0 0 0 0 - - 0.0
29/09:00pm 18.8 20.2 14.5 76 2.5 CALM 0 0 0 0 - - 0.0
29/08:30pm 18.7 19.2 14.0 74 2.7 SE 4 6 2 3 - - 0.0
29/08:00pm 19.6 19.9 13.5 68 3.5 SE 4 7 2 4 - - 0.0
29/07:30pm 20.5 20.0 13.7 65 3.9 E 9 11 5 6 - - 0.0
29/07:00pm 21.2 20.5 13.1 60 4.6 E 9 15 5 8 - - 0.0
29/06:30pm 22.5 20.5 12.7 54 5.6 ESE 15 22 8 12 - - 0.0
29/06:00pm 23.3 20.2 11.7 48 6.5 ESE 19 26 10 14 - - 0.0
29/05:30pm 23.8 20.6 11.8 47 6.8 E 20 32 11 17 - - 0.0
29/05:00pm 24.3 21.6 13.5 51 6.3 E 20 32 11 17 - - 0.0
29/04:30pm 25.2 22.1 13.4 48 6.9 E 22 32 12 17 - - 0.0
29/04:00pm 25.9 23.3 13.7 47 7.2 E 20 30 11 16 - - 0.0
29/03:30pm 26.4 23.5 12.8 43 7.9 E 20 30 11 16 - - 0.0
29/03:00pm 27.0 23.9 13.4 43 8.0 ESE 22 32 12 17 - - 0.0
29/02:30pm 27.5 24.3 11.9 38 9.0 E 20 32 11 17 - - 0.0
29/02:00pm 28.3 25.4 12.2 37 9.4 ESE 19 26 10 14 - - 0.0
29/01:30pm 27.9 25.1 10.1 33 10.0 SE 15 24 8 13 - - 0.0
29/01:00pm 27.9 24.6 8.2 29 10.7 ESE 15 24 8 13 - - 0.0
29/12:30pm 27.6 23.3 8.0 29 10.6 ESE 20 30 11 16 - - 0.0
29/12:00pm 27.5 23.0 6.8 27 11.0 ESE 20 28 11 15 - - 0.0
29/11:30am 27.4 22.5 8.3 30 10.4 ESE 24 35 13 19 - - 0.0
29/11:00am 26.9 22.2 7.9 30 10.2 SE 22 35 12 19 - - 0.0
29/10:30am 26.3 21.7 8.3 32 9.7 SE 22 28 12 15 - - 0.0
29/10:00am 26.0 22.0 10.6 38 8.6 S 22 28 12 15 - - 0.0
29/09:30am 23.9 22.9 14.6 56 5.5 SE 13 24 7 13 - - 0.0
29/09:00am 22.3 22.8 15.6 66 4.0 ESE 7 9 4 5 - - 0.0
29/08:30am 20.2 22.0 15.4 74 2.8 CALM 0 0 0 0 - - 0.0
29/08:00am 18.4 19.6 16.0 86 1.4 WSW 4 7 2 4 - - 0.0
29/07:30am 17.2 18.0 15.9 92 0.8 WNW 6 7 3 4 - - 0.0
29/07:00am 15.8 16.3 15.5 98 0.2 WNW 7 9 4 5 - - 0.0
29/06:30am 14.7 14.8 14.5 99 0.1 WSW 7 11 4 6 - - 0.0
29/06:00am 13.9 13.7 13.6 98 0.2 WSW 7 9 4 5 - - 0.0
29/05:30am 13.7 13.6 13.4 98 0.2 SSW 6 7 3 4 - - 0.0
29/05:00am 13.8 13.5 13.2 96 0.3 WSW 7 7 4 4 - - 0.0
29/04:30am 15.1 15.4 14.6 97 0.3 W 6 7 3 4 - - 0.0
29/04:00am 15.2 15.7 14.9 98 0.2 WNW 6 9 3 5 - - 0.0
29/03:30am 14.9 15.5 14.3 96 0.3 W 4 7 2 4 - - 0.0
29/03:00am 16.0 16.7 15.7 98 0.2 WNW 6 7 3 4 - - 0.0
29/02:30am 15.9 17.7 15.4 97 0.3 CALM 0 0 0 0 - - 0.0
29/02:00am 16.6 18.7 16.3 98 0.2 CALM 0 0 0 0 - - 0.0
29/01:30am 16.3 18.2 15.8 97 0.3 CALM 0 0 0 0 - - 0.0
29/01:00am 16.6 18.6 16.0 96 0.4 CALM 0 0 0 0 - - 0.0
29/12:30am 16.9 18.6 16.1 95 0.5 WNW 2 6 1 3 - - 0.0
29/12:00am 17.0 19.0 15.9 93 0.6 CALM 0 0 0 0 - - 0.0
 
Date/Time
EDT
Temp
°C
App
Temp
°C
Dew
Point
Rel
Hum
%
Delta-T
°C
Wind Press
QNH
hPa
Press
MSL
hPa
Rain
since 9 am
mm
Dir
 
Spd
km/h
Gust
km/h
Spd
kts
Gust
kts
28/11:30pm 17.6 19.0 16.3 92 0.8 SSW 4 6 2 3 - - 0.0
28/11:00pm 18.2 19.3 16.7 91 0.9 WSW 6 7 3 4 - - 0.0
28/10:30pm 18.1 20.3 16.6 91 0.9 CALM 0 0 0 0 - - 0.0
28/10:00pm 18.0 20.2 16.5 91 0.9 CALM 0 0 0 0 - - 0.0
28/09:30pm 18.7 20.7 16.1 85 1.5 CALM 0 0 0 0 - - 0.0
28/09:00pm 19.9 21.4 16.7 82 1.9 NNE 4 9 2 5 - - 0.0
28/08:30pm 20.2 21.3 16.6 80 2.2 NNE 6 9 3 5 - - 0.0
28/08:00pm 20.7 21.2 16.5 77 2.5 ENE 9 13 5 7 - - 0.0
28/07:30pm 21.1 21.6 16.5 75 2.8 E 9 15 5 8 - - 0.0
28/07:00pm 21.8 22.2 16.3 71 3.3 E 9 13 5 7 - - 0.0
28/06:30pm 22.5 22.4 16.1 67 3.9 E 11 17 6 9 - - 0.0
28/06:00pm 23.2 22.5 15.3 61 4.7 E 13 20 7 11 - - 0.0
28/05:30pm 23.9 22.9 14.6 56 5.5 E 13 19 7 10 - - 0.0
28/05:00pm 24.1 22.4 14.8 56 5.5 E 17 24 9 13 - - 0.0

Other Formats:

Comma delimited format used in spreadsheet applications
http://www.bom.gov.au/fwo/IDN60801/IDN60801.95571.axf

JavaScript Object Notation format (JSON) in row-major order
http://www.bom.gov.au/fwo/IDN60801/IDN60801.95571.json